Time,TemperatureF,DewpointF,PressureIn,WindDirection,WindDirectionDegrees,WindSpeedMPH,WindSpeedGustMPH,Humidity,HourlyPrecipIn,Conditions,Clouds,dailyrainin,SoftwareType,DateUTC
2013-02-18 00:02:00,33.3,30.0,29.94,South,183,7.6,7.6,88,0.00,,CLR,0.00,VWS V14.01,2013-02-18 06:02:00,
2013-02-18 00:07:00,33.3,30.0,29.94,South,189,4.0,8.1,88,0.00,,CLR,0.00,VWS V14.01,2013-02-18 06:07:00,
2013-02-18 00:12:00,33.3,30.0,29.94,South,183,10.5,10.5,88,0.00,,CLR,0.00,VWS V14.01,2013-02-18 06:12:00,
2013-02-18 00:17:00,33.4,30.1,29.94,South,174,6.3,11.0,88,0.00,,CLR,0.00,VWS V14.01,2013-02-18 06:17:00,
2013-02-18 00:22:00,33.6,30.3,29.94,South,181,11.0,12.8,88,0.00,,CLR,0.00,VWS V14.01,2013-02-18 06:22:00,
2013-02-18 00:27:00,33.8,30.5,29.94,South,178,12.3,14.5,88,0.00,,CLR,0.00,VWS V14.01,2013-02-18 06:27:00,
2013-02-18 00:32:00,33.8,30.5,29.94,SSW,212,7.6,9.6,88,0.00,,CLR,0.00,VWS V14.01,2013-02-18 06:32:00,
2013-02-18 00:37:00,34.0,30.7,29.94,SE,141,8.3,8.7,88,0.00,,CLR,0.00,VWS V14.01,2013-02-18 06:37:00,
2013-02-18 00:42:00,34.0,30.7,29.94,SSE,155,7.6,11.9,88,0.00,,CLR,0.00,VWS V14.01,2013-02-18 06:42:00,
2013-02-18 00:47:00,34.3,31.0,29.94,SSE,160,5.8,10.5,88,0.00,,CLR,0.00,VWS V14.01,2013-02-18 06:47:00,
2013-02-18 00:53:00,34.5,31.2,29.94,SSW,193,6.3,11.4,88,0.00,,CLR,0.00,VWS V14.01,2013-02-18 06:53:00,
2013-02-18 00:58:00,34.5,31.2,29.94,SSE,165,8.1,13.6,88,0.00,,CLR,0.00,VWS V14.01,2013-02-18 06:58:00,
2013-02-18 01:03:00,34.5,31.2,29.94,South,187,12.3,12.3,88,0.00,,CLR,0.00,VWS V14.01,2013-02-18 07:03:00,
2013-02-18 01:08:00,34.5,31.2,29.94,SSE,161,5.4,8.7,88,0.00,,CLR,0.00,VWS V14.01,2013-02-18 07:08:00,
2013-02-18 01:13:00,34.7,31.4,29.94,South,172,8.3,11.0,88,0.00,,CLR,0.00,VWS V14.01,2013-02-18 07:13:00,
2013-02-18 01:18:00,34.7,31.4,29.91,SSE,163,5.4,13.2,88,0.00,,CLR,0.00,VWS V14.01,2013-02-18 07:18:00,
2013-02-18 01:23:00,34.9,31.5,29.91,SSW,198,7.2,8.3,88,0.00,,CLR,0.00,VWS V14.01,2013-02-18 07:23:00,
2013-02-18 01:28:00,34.9,31.5,29.91,South,181,7.6,11.0,88,0.00,,CLR,0.00,VWS V14.01,2013-02-18 07:28:00,
2013-02-18 01:33:00,34.9,31.5,29.91,SSE,164,8.1,14.5,88,0.00,,CLR,0.00,VWS V14.01,2013-02-18 07:33:00,
2013-02-18 01:38:00,35.1,31.7,29.91,SSW,192,10.5,13.2,88,0.00,,CLR,0.00,VWS V14.01,2013-02-18 07:38:00,
2013-02-18 01:43:00,35.2,31.9,29.91,SSE,164,6.3,11.0,88,0.00,,CLR,0.00,VWS V14.01,2013-02-18 07:43:00,
2013-02-18 01:48:00,35.2,31.9,29.91,South,175,8.3,15.4,88,0.00,,CLR,0.00,VWS V14.01,2013-02-18 07:48:00,
2013-02-18 01:53:00,35.2,31.9,29.91,SSE,164,7.6,12.8,88,0.00,,CLR,0.00,VWS V14.01,2013-02-18 07:53:00,
2013-02-18 01:58:00,35.2,31.9,29.91,SSE,157,8.3,13.2,88,0.00,,CLR,0.00,VWS V14.01,2013-02-18 07:58:00,
2013-02-18 02:03:00,35.2,31.9,29.91,SSE,160,10.5,14.1,88,0.00,,CLR,0.00,VWS V14.01,2013-02-18 08:03:00,
2013-02-18 02:08:00,35.2,31.9,29.91,SSW,207,5.8,13.2,88,0.00,,CLR,0.00,VWS V14.01,2013-02-18 08:08:00,
2013-02-18 02:13:00,35.2,31.9,29.91,South,175,8.1,19.2,88,0.00,,CLR,0.00,VWS V14.01,2013-02-18 08:13:00,
2013-02-18 02:19:00,35.1,31.7,29.88,South,180,11.0,11.0,88,0.00,,CLR,0.00,VWS V14.01,2013-02-18 08:19:00,
2013-02-18 02:24:00,35.1,31.7,29.88,South,170,8.1,12.8,88,0.00,,CLR,0.00,VWS V14.01,2013-02-18 08:24:00,
2013-02-18 02:29:00,34.9,31.5,29.88,SSE,163,10.5,14.1,88,0.00,,CLR,0.00,VWS V14.01,2013-02-18 08:29:00,
2013-02-18 02:34:00,34.9,31.5,29.88,SSE,167,11.0,15.0,88,0.00,,CLR,0.00,VWS V14.01,2013-02-18 08:34:00,
2013-02-18 02:39:00,34.9,31.5,29.88,South,182,10.5,13.2,88,0.00,,CLR,0.00,VWS V14.01,2013-02-18 08:39:00,
2013-02-18 02:44:00,34.7,31.4,29.88,South,176,7.6,8.7,88,0.00,,CLR,0.00,VWS V14.01,2013-02-18 08:44:00,
2013-02-18 02:49:00,34.5,31.2,29.88,SSW,196,8.7,11.0,88,0.00,,CLR,0.00,VWS V14.01,2013-02-18 08:49:00,
2013-02-18 02:54:00,34.7,31.4,29.88,SSW,193,8.3,13.2,88,0.00,,CLR,0.00,VWS V14.01,2013-02-18 08:54:00,
2013-02-18 02:59:00,34.5,31.2,29.85,SSE,149,12.3,12.3,88,0.00,,CLR,0.00,VWS V14.01,2013-02-18 08:59:00,
2013-02-18 03:05:00,34.7,31.4,29.85,South,179,6.3,14.5,88,0.00,,CLR,0.00,VWS V14.01,2013-02-18 09:05:00,
2013-02-18 03:10:00,34.5,31.2,29.85,South,173,8.1,8.7,88,0.00,,CLR,0.00,VWS V14.01,2013-02-18 09:10:00,
2013-02-18 03:15:00,34.7,31.4,29.85,SSW,194,5.8,11.0,88,0.00,,CLR,0.00,VWS V14.01,2013-02-18 09:15:00,
2013-02-18 03:20:00,34.5,31.2,29.85,South,187,8.7,10.5,88,0.00,,CLR,0.00,VWS V14.01,2013-02-18 09:20:00,
2013-02-18 03:25:00,34.5,31.2,29.85,South,188,6.3,10.1,88,0.00,,CLR,0.00,VWS V14.01,2013-02-18 09:25:00,
2013-02-18 03:30:00,34.5,31.2,29.85,South,179,10.5,12.3,88,0.00,,CLR,0.00,VWS V14.01,2013-02-18 09:30:00,
2013-02-18 03:35:00,34.7,31.4,29.85,South,182,8.3,10.5,88,0.00,,CLR,0.00,VWS V14.01,2013-02-18 09:35:00,
2013-02-18 03:40:00,34.7,31.4,29.85,SW,222,8.7,8.7,88,0.00,,CLR,0.00,VWS V14.01,2013-02-18 09:40:00,
2013-02-18 03:45:00,34.7,31.4,29.85,SSE,159,5.8,10.1,88,0.00,,CLR,0.00,VWS V14.01,2013-02-18 09:45:00,
2013-02-18 03:50:00,34.7,31.4,29.85,SSE,152,8.3,8.3,88,0.00,,CLR,0.00,VWS V14.01,2013-02-18 09:50:00,
2013-02-18 03:55:00,34.7,31.4,29.85,South,179,10.1,13.6,88,0.00,,CLR,0.00,VWS V14.01,2013-02-18 09:55:00,
2013-02-18 04:00:00,34.7,31.4,29.82,SSE,148,8.3,13.2,88,0.00,,CLR,0.00,VWS V14.01,2013-02-18 10:00:00,
2013-02-18 04:05:00,34.5,31.2,29.82,SE,132,11.4,11.4,88,0.00,,CLR,0.00,VWS V14.01,2013-02-18 10:05:00,
2013-02-18 04:10:00,34.5,31.2,29.82,South,172,5.8,11.0,88,0.00,,CLR,0.00,VWS V14.01,2013-02-18 10:10:00,
2013-02-18 04:15:00,34.5,31.2,29.82,South,179,7.6,7.6,88,0.00,,CLR,0.00,VWS V14.01,2013-02-18 10:15:00,
2013-02-18 04:20:00,34.5,31.2,29.82,SE,141,8.7,13.2,88,0.00,,CLR,0.00,VWS V14.01,2013-02-18 10:20:00,
2013-02-18 04:25:00,34.5,31.2,29.82,SSE,157,7.2,7.2,88,0.00,,CLR,0.00,VWS V14.01,2013-02-18 10:25:00,
2013-02-18 04:30:00,34.5,31.2,29.82,South,191,7.6,7.6,88,0.00,,CLR,0.00,VWS V14.01,2013-02-18 10:30:00,
2013-02-18 04:35:00,34.5,31.2,29.82,SSW,213,6.3,12.8,88,0.00,,CLR,0.00,VWS V14.01,2013-02-18 10:35:00,
2013-02-18 04:40:00,34.5,31.2,29.82,SSW,201,5.4,5.8,88,0.00,,CLR,0.00,VWS V14.01,2013-02-18 10:40:00,
2013-02-18 04:45:00,34.5,31.2,29.79,South,189,8.3,9.6,88,0.00,,CLR,0.00,VWS V14.01,2013-02-18 10:45:00,
2013-02-18 04:50:00,34.5,31.2,29.79,SSE,158,5.8,10.5,88,0.00,,CLR,0.00,VWS V14.01,2013-02-18 10:50:00,
2013-02-18 04:55:00,34.5,31.2,29.79,SSE,166,10.1,10.1,88,0.00,,CLR,0.00,VWS V14.01,2013-02-18 10:55:00,
2013-02-18 05:00:00,34.7,31.4,29.82,SSE,166,8.7,10.5,88,0.00,,CLR,0.00,VWS V14.01,2013-02-18 11:00:00,
2013-02-18 05:05:00,34.5,31.2,29.82,South,177,5.4,8.7,88,0.00,,CLR,0.00,VWS V14.01,2013-02-18 11:05:00,
2013-02-18 05:10:00,34.5,31.2,29.82,South,172,8.3,8.7,88,0.00,,CLR,0.00,VWS V14.01,2013-02-18 11:10:00,
2013-02-18 05:16:00,34.5,31.2,29.82,South,182,11.0,11.0,88,0.00,,CLR,0.00,VWS V14.01,2013-02-18 11:16:00,
2013-02-18 05:21:00,34.7,31.4,29.82,SSE,168,8.7,10.5,88,0.00,,CLR,0.00,VWS V14.01,2013-02-18 11:21:00,
2013-02-18 05:26:00,34.7,31.4,29.82,SE,130,8.1,8.3,88,0.00,,CLR,0.00,VWS V14.01,2013-02-18 11:26:00,
2013-02-18 05:31:00,34.7,31.4,29.79,South,178,8.1,8.1,88,0.00,,CLR,0.00,VWS V14.01,2013-02-18 11:31:00,
2013-02-18 05:36:00,34.7,31.4,29.79,SSW,194,8.1,10.5,88,0.00,,CLR,0.00,VWS V14.01,2013-02-18 11:36:00,
2013-02-18 05:41:00,34.9,31.5,29.79,SSW,192,7.6,7.6,88,0.00,,CLR,0.00,VWS V14.01,2013-02-18 11:41:00,
2013-02-18 05:46:00,34.9,31.5,29.79,South,173,8.1,15.0,88,0.00,,CLR,0.00,VWS V14.01,2013-02-18 11:46:00,
2013-02-18 05:51:00,34.9,31.5,29.79,South,179,7.6,10.1,88,0.00,,CLR,0.00,VWS V14.01,2013-02-18 11:51:00,
2013-02-18 05:56:00,34.9,31.5,29.79,South,169,5.4,7.6,88,0.00,,CLR,0.00,VWS V14.01,2013-02-18 11:56:00,
2013-02-18 06:01:00,35.1,31.7,29.79,SSE,167,6.3,11.0,88,0.00,,CLR,0.00,VWS V14.01,2013-02-18 12:01:00,
2013-02-18 06:06:00,35.1,31.7,29.79,SSE,168,8.3,8.3,88,0.00,,CLR,0.00,VWS V14.01,2013-02-18 12:06:00,
2013-02-18 06:11:00,35.2,31.9,29.79,SSE,151,8.3,10.5,88,0.00,,CLR,0.00,VWS V14.01,2013-02-18 12:11:00,
2013-02-18 06:17:00,35.4,32.1,29.79,South,171,6.3,8.3,88,0.00,,CLR,0.00,VWS V14.01,2013-02-18 12:17:00,
2013-02-18 06:22:00,35.6,31.2,29.79,South,173,5.8,8.3,84,0.00,,CLR,0.00,VWS V14.01,2013-02-18 12:22:00,
2013-02-18 06:27:00,35.6,31.2,29.79,SE,140,4.0,9.6,84,0.00,,CLR,0.00,VWS V14.01,2013-02-18 12:27:00,
2013-02-18 06:32:00,35.6,31.2,29.79,South,179,5.8,7.6,84,0.00,,CLR,0.00,VWS V14.01,2013-02-18 12:32:00,
2013-02-18 06:37:00,35.6,31.2,29.79,South,190,6.7,8.3,84,0.00,,CLR,0.00,VWS V14.01,2013-02-18 12:37:00,
2013-02-18 06:42:00,35.8,31.4,29.79,South,180,10.1,11.0,84,0.00,,CLR,0.00,VWS V14.01,2013-02-18 12:42:00,
2013-02-18 06:47:00,36.0,31.6,29.76,South,174,8.7,11.0,84,0.00,,CLR,0.00,VWS V14.01,2013-02-18 12:47:00,
2013-02-18 06:52:00,36.1,31.8,29.76,SSW,197,5.4,8.1,84,0.00,,CLR,0.00,VWS V14.01,2013-02-18 12:52:00,
2013-02-18 06:57:00,36.3,32.0,29.76,South,183,8.7,14.5,84,0.00,,CLR,0.00,VWS V14.01,2013-02-18 12:57:00,
2013-02-18 07:02:00,36.3,32.0,29.76,South,178,5.8,10.1,84,0.00,,CLR,0.00,VWS V14.01,2013-02-18 13:02:00,
2013-02-18 07:08:00,36.5,32.1,29.76,South,191,6.3,10.5,84,0.00,,CLR,0.00,VWS V14.01,2013-02-18 13:08:00,
2013-02-18 07:13:00,36.7,32.3,29.76,South,191,5.8,10.5,84,0.00,,CLR,0.00,VWS V14.01,2013-02-18 13:13:00,
2013-02-18 07:18:00,36.7,32.3,29.76,SW,217,8.1,11.4,84,0.00,,CLR,0.00,VWS V14.01,2013-02-18 13:18:00,
2013-02-18 07:23:00,36.7,32.3,29.76,SSE,164,7.6,9.6,84,0.00,,CLR,0.00,VWS V14.01,2013-02-18 13:23:00,
2013-02-18 07:28:00,36.9,32.5,29.76,SSW,204,11.0,14.5,84,0.00,,CLR,0.00,VWS V14.01,2013-02-18 13:28:00,
2013-02-18 07:33:00,37.0,32.7,29.76,South,186,8.3,8.3,84,0.00,,CLR,0.00,VWS V14.01,2013-02-18 13:33:00,
2013-02-18 07:38:00,37.4,33.0,29.76,SSW,192,7.6,14.5,84,0.00,,CLR,0.00,VWS V14.01,2013-02-18 13:38:00,
2013-02-18 07:43:00,37.6,33.2,29.76,SE,136,5.4,11.0,84,0.00,,CLR,0.00,VWS V14.01,2013-02-18 13:43:00,
2013-02-18 07:48:00,37.8,33.4,29.76,South,180,10.5,10.5,84,0.00,,CLR,0.00,VWS V14.01,2013-02-18 13:48:00,
2013-02-18 07:53:00,37.9,33.5,29.76,South,180,8.3,10.1,84,0.00,,CLR,0.00,VWS V14.01,2013-02-18 13:53:00,
2013-02-18 07:59:00,38.1,33.7,29.76,SSW,212,8.7,11.4,84,0.00,,CLR,0.00,VWS V14.01,2013-02-18 13:59:00,
2013-02-18 08:04:00,38.3,33.9,29.76,SSE,160,7.2,12.3,84,0.00,,CLR,0.00,VWS V14.01,2013-02-18 14:04:00,
2013-02-18 08:09:00,38.5,34.1,29.76,SSW,199,6.7,13.2,84,0.00,,CLR,0.00,VWS V14.01,2013-02-18 14:09:00,
2013-02-18 08:14:00,38.8,34.4,29.76,South,182,12.8,12.8,84,0.00,,CLR,0.00,VWS V14.01,2013-02-18 14:14:00,
2013-02-18 08:19:00,39.4,33.9,29.76,South,183,5.4,11.9,80,0.00,,CLR,0.00,VWS V14.01,2013-02-18 14:19:00,
2013-02-18 08:24:00,39.9,34.4,29.76,SW,219,7.6,11.0,80,0.00,,CLR,0.00,VWS V14.01,2013-02-18 14:24:00,
2013-02-18 08:29:00,40.5,34.9,29.76,SSW,194,10.5,12.3,80,0.00,,CLR,0.00,VWS V14.01,2013-02-18 14:29:00,
2013-02-18 08:34:00,40.6,35.1,29.76,SSW,213,5.4,15.9,80,0.00,,CLR,0.00,VWS V14.01,2013-02-18 14:34:00,
2013-02-18 08:39:00,41.2,35.7,29.76,SSE,157,5.8,11.9,80,0.00,,CLR,0.00,VWS V14.01,2013-02-18 14:39:00,
2013-02-18 08:44:00,41.7,36.2,29.76,SSE,158,8.7,13.2,80,0.00,,CLR,0.00,VWS V14.01,2013-02-18 14:44:00,
2013-02-18 08:49:00,42.1,36.5,29.76,South,182,7.2,10.5,80,0.00,,CLR,0.00,VWS V14.01,2013-02-18 14:49:00,
2013-02-18 08:55:00,42.6,37.0,29.76,SSW,213,6.3,13.2,80,0.00,,CLR,0.00,VWS V14.01,2013-02-18 14:55:00,
2013-02-18 09:00:00,43.2,37.6,29.73,South,183,12.8,12.8,80,0.00,,CLR,0.00,VWS V14.01,2013-02-18 15:00:00,
2013-02-18 09:05:00,43.9,38.3,29.73,South,181,8.7,13.2,80,0.00,,CLR,0.00,VWS V14.01,2013-02-18 15:05:00,
2013-02-18 09:10:00,44.8,38.0,29.73,South,179,7.6,15.0,77,0.00,,CLR,0.00,VWS V14.01,2013-02-18 15:10:00,
2013-02-18 09:15:00,45.3,38.5,29.73,South,184,11.9,12.3,77,0.00,,CLR,0.00,VWS V14.01,2013-02-18 15:15:00,
2013-02-18 09:20:00,45.9,39.1,29.73,South,185,7.6,7.6,77,0.00,,CLR,0.00,VWS V14.01,2013-02-18 15:20:00,
2013-02-18 09:25:00,46.4,39.6,29.73,SSW,192,8.7,10.1,77,0.00,,CLR,0.00,VWS V14.01,2013-02-18 15:25:00,
2013-02-18 09:30:00,46.9,40.1,29.73,South,182,5.8,10.1,77,0.00,,CLR,0.00,VWS V14.01,2013-02-18 15:30:00,
2013-02-18 09:35:00,47.5,40.6,29.73,SW,233,8.1,14.5,77,0.00,,CLR,0.00,VWS V14.01,2013-02-18 15:35:00,
2013-02-18 09:40:00,48.2,40.1,29.73,SSE,159,8.3,8.3,74,0.00,,CLR,0.00,VWS V14.01,2013-02-18 15:40:00,
2013-02-18 09:45:00,48.6,40.5,29.73,SE,145,7.2,8.1,74,0.00,,CLR,0.00,VWS V14.01,2013-02-18 15:45:00,
2013-02-18 09:50:00,48.6,40.5,29.73,SSE,162,12.3,12.8,74,0.00,,CLR,0.00,VWS V14.01,2013-02-18 15:50:00,
2013-02-18 09:55:00,48.7,40.7,29.73,SSW,192,7.6,7.6,74,0.00,,CLR,0.00,VWS V14.01,2013-02-18 15:55:00,
2013-02-18 10:00:00,49.1,41.0,29.73,SSW,200,6.3,12.8,74,0.00,,CLR,0.00,VWS V14.01,2013-02-18 16:00:00,
2013-02-18 10:05:00,49.6,41.5,29.73,SSW,205,5.8,9.6,74,0.00,,CLR,0.00,VWS V14.01,2013-02-18 16:05:00,
2013-02-18 10:10:00,50.2,42.0,29.73,SW,221,6.3,8.7,74,0.00,,CLR,0.00,VWS V14.01,2013-02-18 16:10:00,
2013-02-18 10:15:00,50.2,42.0,29.73,SW,228,5.8,5.8,74,0.00,,CLR,0.00,VWS V14.01,2013-02-18 16:15:00,
2013-02-18 10:20:00,50.2,42.0,29.73,SW,219,7.6,10.5,74,0.00,,CLR,0.00,VWS V14.01,2013-02-18 16:20:00,
2013-02-18 10:25:00,50.7,42.6,29.73,SSW,194,5.4,17.4,74,0.00,,CLR,0.00,VWS V14.01,2013-02-18 16:25:00,
2013-02-18 10:30:00,51.1,42.9,29.73,South,178,7.6,15.9,74,0.00,,CLR,0.00,VWS V14.01,2013-02-18 16:30:00,
2013-02-18 10:35:00,51.3,43.1,29.73,SW,229,8.3,11.0,74,0.00,,CLR,0.00,VWS V14.01,2013-02-18 16:35:00,
2013-02-18 10:41:00,51.3,43.1,29.73,SW,217,8.1,13.2,74,0.00,,CLR,0.00,VWS V14.01,2013-02-18 16:41:00,
2013-02-18 10:46:00,51.6,43.4,29.70,SSE,155,7.6,20.6,74,0.00,,CLR,0.00,VWS V14.01,2013-02-18 16:46:00,
2013-02-18 10:51:00,52.0,43.8,29.70,SW,215,11.0,11.0,74,0.00,,CLR,0.00,VWS V14.01,2013-02-18 16:51:00,
2013-02-18 10:56:00,52.0,43.8,29.70,SSW,192,8.7,13.2,74,0.00,,CLR,0.00,VWS V14.01,2013-02-18 16:56:00,
2013-02-18 11:01:00,52.3,44.1,29.70,SSW,209,8.7,15.4,74,0.00,,CLR,0.00,VWS V14.01,2013-02-18 17:01:00,
2013-02-18 11:06:00,53.1,44.8,29.70,South,181,6.3,13.6,74,0.00,,CLR,0.00,VWS V14.01,2013-02-18 17:06:00,
2013-02-18 11:11:00,53.4,45.2,29.70,South,182,12.8,12.8,74,0.00,,CLR,0.00,VWS V14.01,2013-02-18 17:11:00,
2013-02-18 11:16:00,53.4,45.2,29.70,SSW,192,9.2,11.0,74,0.00,,CLR,0.00,VWS V14.01,2013-02-18 17:16:00,
2013-02-18 11:21:00,53.6,44.1,29.70,SSW,206,9.6,12.3,70,0.00,,CLR,0.00,VWS V14.01,2013-02-18 17:21:00,
2013-02-18 11:26:00,53.4,45.2,29.70,South,176,7.6,12.3,74,0.00,,CLR,0.00,VWS V14.01,2013-02-18 17:26:00,
2013-02-18 11:31:00,53.2,45.0,29.70,SW,234,8.1,13.6,74,0.00,,CLR,0.00,VWS V14.01,2013-02-18 17:31:00,
2013-02-18 11:36:00,53.1,44.8,29.70,SSW,205,8.7,11.0,74,0.00,,CLR,0.00,VWS V14.01,2013-02-18 17:36:00,
2013-02-18 11:41:00,53.1,44.8,29.70,SE,128,11.0,12.3,74,0.00,,SCT075,0.00,VWS V14.01,2013-02-18 17:41:00,
2013-02-18 11:47:00,53.1,44.8,29.67,South,186,10.1,15.0,74,0.00,,SCT075,0.00,VWS V14.01,2013-02-18 17:47:00,
2013-02-18 11:52:00,53.1,44.8,29.67,SSW,193,5.4,12.3,74,0.00,,SCT075,0.00,VWS V14.01,2013-02-18 17:52:00,
2013-02-18 11:57:00,53.2,45.0,29.67,SW,220,8.1,11.0,74,0.00,,SCT075,0.00,VWS V14.01,2013-02-18 17:57:00,
2013-02-18 12:02:00,53.2,45.0,29.67,South,189,7.6,14.5,74,0.00,,SCT075,0.00,VWS V14.01,2013-02-18 18:02:00,
2013-02-18 12:07:00,53.2,45.0,29.67,South,181,8.3,13.2,74,0.00,,SCT075,0.00,VWS V14.01,2013-02-18 18:07:00,
2013-02-18 12:12:00,53.1,44.8,29.67,SSW,201,7.6,15.0,74,0.00,,SCT075,0.00,VWS V14.01,2013-02-18 18:12:00,
2013-02-18 12:17:00,53.1,44.8,29.67,SE,146,11.9,13.2,74,0.00,,SCT075,0.00,VWS V14.01,2013-02-18 18:17:00,
2013-02-18 12:22:00,52.9,44.7,29.67,SSW,209,8.7,15.0,74,0.00,,SCT055,0.00,VWS V14.01,2013-02-18 18:22:00,
2013-02-18 12:27:00,53.1,44.8,29.67,South,183,7.6,10.5,74,0.00,,SCT055,0.00,VWS V14.01,2013-02-18 18:27:00,
2013-02-18 12:32:00,52.9,44.7,29.67,South,185,10.5,11.0,74,0.00,,SCT055,0.00,VWS V14.01,2013-02-18 18:32:00,
2013-02-18 12:37:00,53.1,44.8,29.67,SSW,196,8.1,12.8,74,0.00,,SCT055,0.00,VWS V14.01,2013-02-18 18:37:00,
2013-02-18 12:42:00,53.2,45.0,29.67,SSE,166,8.3,10.1,74,0.00,,BKN050,0.00,VWS V14.01,2013-02-18 18:42:00,
2013-02-18 12:47:00,53.2,45.0,29.64,SSE,158,6.3,11.0,74,0.00,,BKN050,0.00,VWS V14.01,2013-02-18 18:47:00,
2013-02-18 12:52:00,53.4,45.2,29.64,SE,143,7.6,10.5,74,0.00,,BKN050,0.00,VWS V14.01,2013-02-18 18:52:00,
2013-02-18 12:57:00,53.4,45.2,29.64,SW,230,8.1,12.3,74,0.00,,BKN050,0.00,VWS V14.01,2013-02-18 18:57:00,
2013-02-18 13:02:00,53.4,45.2,29.64,SW,230,8.1,12.3,74,0.00,,OVC046,0.00,VWS V14.01,2013-02-18 19:02:00,
2013-02-18 13:07:00,53.6,44.1,29.64,South,181,7.6,8.7,70,0.00,,OVC046,0.00,VWS V14.01,2013-02-18 19:07:00,
2013-02-18 13:12:00,53.8,44.2,29.64,WSW,245,8.1,11.4,70,0.00,,OVC046,0.00,VWS V14.01,2013-02-18 19:12:00,
2013-02-18 13:18:00,54.0,44.4,29.64,SSE,156,8.1,10.5,70,0.00,,OVC046,0.00,VWS V14.01,2013-02-18 19:18:00,
2013-02-18 13:23:00,53.8,44.2,29.64,SE,137,12.8,12.8,70,0.00,,OVC042,0.00,VWS V14.01,2013-02-18 19:23:00,
2013-02-18 13:28:00,53.8,44.2,29.64,SW,232,9.6,15.4,70,0.00,,OVC042,0.00,VWS V14.01,2013-02-18 19:28:00,
2013-02-18 13:33:00,53.6,44.1,29.64,SSW,200,5.8,11.0,70,0.00,,OVC042,0.00,VWS V14.01,2013-02-18 19:33:00,
2013-02-18 13:38:00,53.6,44.1,29.64,SW,219,8.3,10.5,70,0.00,,OVC042,0.00,VWS V14.01,2013-02-18 19:38:00,
2013-02-18 13:43:00,53.6,44.1,29.64,SSW,194,6.7,9.2,70,0.00,,OVC042,0.00,VWS V14.01,2013-02-18 19:43:00,
2013-02-18 13:48:00,53.6,44.1,29.64,SW,228,7.6,15.4,70,0.00,,OVC042,0.00,VWS V14.01,2013-02-18 19:48:00,
2013-02-18 13:53:00,53.4,45.2,29.64,SSW,212,5.4,10.5,74,0.00,,OVC042,0.00,VWS V14.01,2013-02-18 19:53:00,
2013-02-18 13:58:00,53.1,47.2,29.64,South,189,8.3,11.0,80,0.00,,OVC042,0.00,VWS V14.01,2013-02-18 19:58:00,
2013-02-18 14:03:00,52.7,46.9,29.61,SSW,207,5.4,10.1,80,0.00,,OVC044,0.00,VWS V14.01,2013-02-18 20:03:00,
2013-02-18 14:08:00,52.7,46.9,29.61,SSE,166,5.4,11.0,80,0.00,,OVC044,0.00,VWS V14.01,2013-02-18 20:08:00,
2013-02-18 14:13:00,52.3,46.5,29.61,South,187,7.6,8.1,80,0.00,,OVC044,0.00,VWS V14.01,2013-02-18 20:13:00,
2013-02-18 14:18:00,52.2,46.3,29.61,SSE,157,6.3,12.8,80,0.00,,OVC044,0.00,VWS V14.01,2013-02-18 20:18:00,
2013-02-18 14:23:00,52.0,49.4,29.61,SSW,193,5.8,11.0,91,0.00,,OVC028,0.00,VWS V14.01,2013-02-18 20:23:00,
2013-02-18 14:29:00,51.8,49.3,29.61,SSW,197,4.0,12.3,91,0.00,,OVC028,0.00,VWS V14.01,2013-02-18 20:29:00,
2013-02-18 14:34:00,51.6,49.1,29.61,SSW,206,5.4,8.7,91,0.00,,OVC028,0.00,VWS V14.01,2013-02-18 20:34:00,
2013-02-18 14:39:00,51.6,49.1,29.61,South,184,6.3,6.3,91,0.00,,OVC028,0.00,VWS V14.01,2013-02-18 20:39:00,
2013-02-18 14:44:00,51.8,49.3,29.58,SSW,203,5.4,8.3,91,0.00,,OVC028,0.00,VWS V14.01,2013-02-18 20:44:00,
2013-02-18 14:49:00,52.2,49.6,29.58,SW,228,6.3,8.3,91,0.00,,OVC028,0.00,VWS V14.01,2013-02-18 20:49:00,
2013-02-18 14:54:00,52.5,50.0,29.58,SSW,206,6.3,9.2,91,0.00,,OVC028,0.00,VWS V14.01,2013-02-18 20:54:00,
2013-02-18 14:59:00,53.1,50.5,29.58,SSW,200,7.6,15.0,91,0.00,,OVC028,0.00,VWS V14.01,2013-02-18 20:59:00,
2013-02-18 15:04:00,53.4,47.6,29.58,South,189,5.8,12.3,80,0.00,,OVC026,0.00,VWS V14.01,2013-02-18 21:04:00,
2013-02-18 15:10:00,53.8,47.9,29.58,SW,232,11.0,18.8,80,0.00,,OVC026,0.00,VWS V14.01,2013-02-18 21:10:00,
2013-02-18 15:15:00,54.0,48.1,29.58,SSW,212,8.1,8.1,80,0.00,,OVC026,0.00,VWS V14.01,2013-02-18 21:15:00,
2013-02-18 15:20:00,54.1,48.3,29.58,SSW,200,8.1,17.9,80,0.00,,OVC026,0.00,VWS V14.01,2013-02-18 21:20:00,
2013-02-18 15:25:00,54.1,48.3,29.58,SSW,213,6.3,13.2,80,0.00,,OVC026,0.00,VWS V14.01,2013-02-18 21:25:00,
2013-02-18 15:30:00,54.1,48.3,29.58,SE,144,8.1,11.0,80,0.00,,OVC026,0.00,VWS V14.01,2013-02-18 21:30:00,
2013-02-18 15:35:00,53.8,47.9,29.58,SSW,194,12.3,16.3,80,0.00,,OVC026,0.00,VWS V14.01,2013-02-18 21:35:00,
2013-02-18 15:40:00,53.6,47.8,29.58,SW,227,6.7,12.8,80,0.00,,OVC022,0.00,VWS V14.01,2013-02-18 21:40:00,
2013-02-18 15:45:00,53.2,47.4,29.55,SSW,207,15.0,15.0,80,0.00,,OVC022,0.00,VWS V14.01,2013-02-18 21:45:00,
2013-02-18 15:50:00,52.7,50.2,29.55,South,179,6.7,15.0,91,0.00,,OVC022,0.00,VWS V14.01,2013-02-18 21:50:00,
2013-02-18 15:55:00,51.8,49.3,29.55,South,172,7.2,14.1,91,0.00,,OVC022,0.00,VWS V14.01,2013-02-18 21:55:00,
2013-02-18 16:00:00,51.1,49.6,29.55,South,183,5.8,13.2,94,0.00,,OVC022,0.00,VWS V14.01,2013-02-18 22:00:00,
2013-02-18 16:05:00,50.5,49.0,29.55,SSE,159,6.3,11.4,94,0.00,,OVC020,0.00,VWS V14.01,2013-02-18 22:05:00,
2013-02-18 16:10:00,50.4,49.8,29.55,SSE,166,12.3,13.2,98,0.00,,OVC020,0.00,VWS V14.01,2013-02-18 22:10:00,
2013-02-18 16:15:00,50.2,49.6,29.55,SSW,205,10.1,12.3,98,0.00,,OVC020,0.00,VWS V14.01,2013-02-18 22:15:00,
2013-02-18 16:20:00,50.2,49.6,29.55,SSE,163,10.5,11.0,98,0.00,,OVC018,0.00,VWS V14.01,2013-02-18 22:20:00,
2013-02-18 16:25:00,50.0,49.5,29.55,SSE,160,5.8,5.8,98,0.00,,OVC018,0.00,VWS V14.01,2013-02-18 22:25:00,
2013-02-18 16:30:00,50.0,49.5,29.52,South,184,11.9,11.9,98,0.00,,OVC018,0.00,VWS V14.01,2013-02-18 22:30:00,
2013-02-18 16:35:00,50.0,49.5,29.52,SE,134,10.5,13.6,98,0.00,,OVC018,0.00,VWS V14.01,2013-02-18 22:35:00,
2013-02-18 16:40:00,50.2,49.6,29.52,South,170,8.1,11.0,98,0.00,,OVC018,0.00,VWS V14.01,2013-02-18 22:40:00,
2013-02-18 16:45:00,50.2,49.6,29.52,South,191,6.3,7.6,98,0.00,,OVC014,0.00,VWS V14.01,2013-02-18 22:45:00,
2013-02-18 16:50:00,50.2,49.6,29.52,South,179,8.3,11.0,98,0.00,,OVC014,0.00,VWS V14.01,2013-02-18 22:50:00,
2013-02-18 16:55:00,50.2,49.6,29.52,South,177,14.5,14.5,98,0.00,,OVC014,0.00,VWS V14.01,2013-02-18 22:55:00,
2013-02-18 17:00:00,50.0,49.5,29.52,South,179,10.1,10.1,98,0.00,,OVC014,0.00,VWS V14.01,2013-02-18 23:00:00,
2013-02-18 17:05:00,49.8,49.3,29.52,SSW,196,7.6,7.6,98,0.00,,OVC014,0.00,VWS V14.01,2013-02-18 23:05:00,
2013-02-18 17:11:00,49.6,49.6,29.52,SSE,167,9.6,9.6,100,0.00,,OVC014,0.00,VWS V14.01,2013-02-18 23:11:00,
2013-02-18 17:16:00,49.5,49.5,29.52,South,177,10.5,16.3,100,0.00,,OVC014,0.00,VWS V14.01,2013-02-18 23:16:00,
2013-02-18 17:21:00,49.3,49.3,29.52,SSW,208,12.3,12.3,100,0.00,,-RA,0.00,VWS V14.01,2013-02-18 23:21:00,
2013-02-18 17:26:00,49.3,49.3,29.52,SSE,166,5.8,7.6,100,0.00,,-RA,0.00,VWS V14.01,2013-02-18 23:26:00,
2013-02-18 17:31:00,49.1,49.1,29.52,SSW,212,11.0,13.2,100,0.04,,-RA,0.04,VWS V14.01,2013-02-18 23:31:00,
2013-02-18 17:36:00,48.9,48.9,29.52,SE,136,8.3,8.3,100,0.04,,-RA,0.04,VWS V14.01,2013-02-18 23:36:00,
2013-02-18 17:41:00,48.9,48.9,29.52,SSE,159,15.4,15.4,100,0.04,,-RA,0.04,VWS V14.01,2013-02-18 23:41:00,
2013-02-18 17:46:00,49.1,49.1,29.52,SW,234,12.8,17.0,100,0.04,, +RA,0.04,VWS V14.01,2013-02-18 23:46:00,
2013-02-18 17:51:00,48.9,48.9,29.52,South,178,10.1,10.1,100,0.04,, +RA,0.04,VWS V14.01,2013-02-18 23:51:00,
2013-02-18 17:56:00,48.9,48.9,29.52,SSW,200,14.5,15.4,100,0.04,, +RA,0.04,VWS V14.01,2013-02-18 23:56:00,
2013-02-18 18:02:00,48.9,48.9,29.52,South,186,15.0,15.0,100,0.08,, +RA,0.08,VWS V14.01,2013-02-19 00:02:00,
2013-02-18 18:07:00,48.7,48.7,29.52,SSW,207,7.6,12.8,100,0.08,,OVC010,0.08,VWS V14.01,2013-02-19 00:07:00,
2013-02-18 18:12:00,48.6,48.6,29.52,WNW,298,3.6,11.0,100,0.12,,OVC010,0.12,VWS V14.01,2013-02-19 00:12:00,
2013-02-18 18:17:00,46.6,46.6,29.55,NW,313,3.6,7.6,100,0.20,,OVC010,0.20,VWS V14.01,2013-02-19 00:17:00,
2013-02-18 18:22:00,44.1,44.1,29.55,NW,314,4.0,12.3,100,0.20,,-RA,0.20,VWS V14.01,2013-02-19 00:22:00,
2013-02-18 18:27:00,42.8,42.8,29.55,North,353,7.6,7.6,100,0.20,,-RA,0.20,VWS V14.01,2013-02-19 00:27:00,
2013-02-18 18:32:00,41.9,41.9,29.58,West,279,4.0,8.1,100,0.20,,-RA,0.24,VWS V14.01,2013-02-19 00:32:00,
2013-02-18 18:37:00,41.4,41.4,29.58,WNW,283,3.6,7.2,100,0.20,,-RA,0.24,VWS V14.01,2013-02-19 00:37:00,
2013-02-18 18:42:00,40.6,40.6,29.58,NNW,341,8.1,10.5,100,0.20,,-RA,0.24,VWS V14.01,2013-02-19 00:42:00,
2013-02-18 18:47:00,39.9,39.9,29.58,NW,311,7.2,9.6,100,0.20,,-RA,0.24,VWS V14.01,2013-02-19 00:47:00,
2013-02-18 18:52:00,39.2,39.2,29.58,NNW,339,9.6,9.6,100,0.24,,-RA,0.28,VWS V14.01,2013-02-19 00:52:00,
2013-02-18 18:57:00,38.8,38.8,29.58,NW,318,8.3,11.0,100,0.24,,-RA,0.28,VWS V14.01,2013-02-19 00:57:00,
2013-02-18 19:03:00,38.5,38.5,29.58,West,279,3.6,11.0,100,0.24,,-RA,0.28,VWS V14.01,2013-02-19 01:03:00,
2013-02-18 19:08:00,37.6,37.6,29.58,NNW,327,10.1,10.1,100,0.20,,-RA,0.28,VWS V14.01,2013-02-19 01:08:00,
2013-02-18 19:13:00,37.0,37.0,29.58,North,357,10.1,10.1,100,0.20,,-RA,0.28,VWS V14.01,2013-02-19 01:13:00,
2013-02-18 19:18:00,36.7,36.7,29.61,NNW,331,4.0,8.7,100,0.12,,-RA,0.28,VWS V14.01,2013-02-19 01:18:00,
2013-02-18 19:23:00,36.0,36.0,29.61,West,270,5.8,11.0,100,0.12,,-RA,0.31,VWS V14.01,2013-02-19 01:23:00,
2013-02-18 19:28:00,35.4,35.4,29.61,NW,304,3.6,9.6,100,0.12,,-RA,0.31,VWS V14.01,2013-02-19 01:28:00,
2013-02-18 19:33:00,35.2,35.2,29.64,WNW,300,3.6,8.3,100,0.08,,-RA,0.31,VWS V14.01,2013-02-19 01:33:00,
2013-02-18 19:38:00,35.1,35.1,29.64,NW,309,5.4,7.2,100,0.08,,-RA,0.31,VWS V14.01,2013-02-19 01:38:00,
2013-02-18 19:43:00,34.9,34.9,29.64,NW,315,5.4,8.1,100,0.08,,-RA,0.31,VWS V14.01,2013-02-19 01:43:00,
2013-02-18 19:48:00,34.9,34.9,29.64,WSW,239,8.1,11.4,100,0.08,,-RA,0.31,VWS V14.01,2013-02-19 01:48:00,
2013-02-18 19:53:00,34.7,34.7,29.64,North,0,5.4,12.3,100,0.08,,-RA,0.31,VWS V14.01,2013-02-19 01:53:00,
2013-02-18 19:58:00,34.5,34.5,29.64,West,277,3.1,11.9,100,0.04,,-RA,0.31,VWS V14.01,2013-02-19 01:58:00,
2013-02-18 20:03:00,34.5,34.5,29.64,North,350,10.1,11.0,100,0.04,,-RA,0.31,VWS V14.01,2013-02-19 02:03:00,
2013-02-18 20:08:00,34.3,34.3,29.64,NW,304,3.6,10.5,100,0.04,,-RA,0.31,VWS V14.01,2013-02-19 02:08:00,
2013-02-18 20:13:00,34.3,34.3,29.64,WSW,244,6.3,7.6,100,0.04,,-RA,0.31,VWS V14.01,2013-02-19 02:13:00,
2013-02-18 20:18:00,34.2,34.2,29.64,NW,305,5.8,11.9,100,0.04,,OVC014,0.31,VWS V14.01,2013-02-19 02:18:00,
2013-02-18 20:23:00,34.2,34.2,29.64,West,279,3.6,10.1,100,0.04,,OVC014,0.31,VWS V14.01,2013-02-19 02:23:00,
2013-02-18 20:28:00,34.2,34.2,29.64,West,275,2.2,5.4,100,0.00,,OVC014,0.31,VWS V14.01,2013-02-19 02:28:00,
2013-02-18 20:33:00,34.2,34.2,29.67,WSW,245,3.6,8.7,100,0.00,,OVC014,0.31,VWS V14.01,2013-02-19 02:33:00,
2013-02-18 20:38:00,34.2,34.2,29.67,NNW,328,8.7,14.5,100,0.00,,,0.31,VWS V14.01,2013-02-19 02:38:00,
2013-02-18 20:43:00,34.0,34.0,29.67,West,276,3.6,10.5,100,0.00,,,0.31,VWS V14.01,2013-02-19 02:43:00,
2013-02-18 20:48:00,33.8,33.8,29.67,WNW,300,5.8,9.2,100,0.00,,,0.31,VWS V14.01,2013-02-19 02:48:00,
2013-02-18 20:53:00,33.6,33.6,29.67,WNW,294,12.8,13.6,100,0.00,,,0.31,VWS V14.01,2013-02-19 02:53:00,
2013-02-18 20:59:00,33.3,33.3,29.67,WNW,285,5.4,11.4,100,0.00,,,0.31,VWS V14.01,2013-02-19 02:59:00,
2013-02-18 21:04:00,32.9,32.9,29.70,NNW,333,5.4,11.0,100,0.00,,,0.31,VWS V14.01,2013-02-19 03:04:00,
2013-02-18 21:09:00,32.5,32.5,29.70,WNW,290,6.3,10.5,100,0.00,,,0.31,VWS V14.01,2013-02-19 03:09:00,
2013-02-18 21:14:00,32.2,32.2,29.70,WNW,291,6.3,17.4,100,0.00,,,0.31,VWS V14.01,2013-02-19 03:14:00,
2013-02-18 21:19:00,31.8,31.8,29.70,West,265,8.3,17.0,100,0.00,,,0.31,VWS V14.01,2013-02-19 03:19:00,
2013-02-18 21:25:00,31.5,31.5,29.70,WSW,239,7.6,17.4,100,0.00,,,0.31,VWS V14.01,2013-02-19 03:25:00,
2013-02-18 21:30:00,30.9,30.9,29.73,SW,233,15.4,15.4,100,0.00,,,0.31,VWS V14.01,2013-02-19 03:30:00,
2013-02-18 21:35:00,30.2,30.2,29.73,WSW,248,6.3,22.4,100,0.00,,,0.31,VWS V14.01,2013-02-19 03:35:00,
2013-02-18 21:40:00,29.5,29.5,29.73,NW,313,5.4,22.4,100,0.00,,,0.31,VWS V14.01,2013-02-19 03:40:00,
2013-02-18 21:45:00,29.3,29.3,29.73,West,272,10.5,11.0,100,0.00,,,0.31,VWS V14.01,2013-02-19 03:45:00,
2013-02-18 21:50:00,29.1,29.1,29.73,West,274,12.3,12.3,100,0.00,,,0.31,VWS V14.01,2013-02-19 03:50:00,
2013-02-18 21:55:00,28.9,28.9,29.73,WSW,256,10.1,10.1,100,0.00,,,0.31,VWS V14.01,2013-02-19 03:55:00,
2013-02-18 22:00:00,28.8,28.8,29.73,WSW,250,5.8,10.5,100,0.00,,OVC015,0.31,VWS V14.01,2013-02-19 04:00:00,
2013-02-18 22:05:00,28.6,28.6,29.73,NW,317,12.3,15.0,100,0.00,,OVC015,0.31,VWS V14.01,2013-02-19 04:05:00,
2013-02-18 22:10:00,28.2,28.2,29.73,NNW,339,5.4,7.6,100,0.00,,OVC015,0.31,VWS V14.01,2013-02-19 04:10:00,
2013-02-18 22:16:00,28.0,28.0,29.76,West,263,8.7,10.1,100,0.00,,OVC015,0.31,VWS V14.01,2013-02-19 04:16:00,
2013-02-18 22:21:00,27.5,27.5,29.76,West,276,12.8,15.9,100,0.00,,OVC017,0.31,VWS V14.01,2013-02-19 04:21:00,
2013-02-18 22:26:00,27.0,27.0,29.76,WNW,287,13.2,13.2,100,0.00,,OVC017,0.31,VWS V14.01,2013-02-19 04:26:00,
2013-02-18 22:31:00,26.8,26.8,29.76,West,260,5.4,6.3,100,0.00,,OVC017,0.31,VWS V14.01,2013-02-19 04:31:00,
2013-02-18 22:36:00,26.6,26.6,29.76,West,267,6.3,15.4,100,0.00,,OVC017,0.31,VWS V14.01,2013-02-19 04:36:00,
2013-02-18 22:41:00,26.6,26.6,29.76,WNW,292,8.1,10.5,100,0.00,,OVC017,0.31,VWS V14.01,2013-02-19 04:41:00,
2013-02-18 22:46:00,26.4,26.4,29.76,WSW,244,5.4,12.8,100,0.00,,OVC017,0.31,VWS V14.01,2013-02-19 04:46:00,
2013-02-18 22:51:00,26.2,26.2,29.76,WNW,297,7.6,11.0,100,0.00,,OVC017,0.31,VWS V14.01,2013-02-19 04:51:00,
2013-02-18 22:56:00,25.9,25.9,29.76,WSW,249,5.8,15.0,100,0.00,,OVC017,0.31,VWS V14.01,2013-02-19 04:56:00,
2013-02-18 23:00:00,25.7,25.7,29.76,NW,320,2.7,15.0,100,0.00,,OVC017,0.31,VWS V14.01,2013-02-19 05:00:00,
2013-02-18 23:02:00,25.7,25.7,29.76,West,266,8.7,10.5,100,0.00,,OVC022,0.31,VWS V14.01,2013-02-19 05:02:00,
2013-02-18 23:07:00,25.5,25.5,29.76,WSW,249,5.8,11.4,100,0.00,,OVC022,0.31,VWS V14.01,2013-02-19 05:07:00,
2013-02-18 23:12:00,25.3,25.3,29.76,WSW,244,8.3,11.0,100,0.00,,OVC022,0.31,VWS V14.01,2013-02-19 05:12:00,
2013-02-18 23:17:00,25.3,25.3,29.79,WNW,295,10.5,14.5,100,0.00,,OVC022,0.31,VWS V14.01,2013-02-19 05:17:00,
2013-02-18 23:22:00,25.2,25.2,29.79,WNW,301,8.7,8.7,100,0.00,,OVC022,0.31,VWS V14.01,2013-02-19 05:22:00,
2013-02-18 23:27:00,25.0,25.0,29.79,West,263,3.6,10.1,100,0.00,,OVC022,0.31,VWS V14.01,2013-02-19 05:27:00,
2013-02-18 23:32:00,25.0,25.0,29.79,WSW,241,10.5,14.5,100,0.00,,OVC022,0.31,VWS V14.01,2013-02-19 05:32:00,
2013-02-18 23:37:00,25.0,25.0,29.79,NNW,343,5.4,8.1,100,0.00,,OVC022,0.31,VWS V14.01,2013-02-19 05:37:00,
2013-02-18 23:42:00,25.0,25.0,29.79,West,279,5.4,8.7,100,0.00,,OVC024,0.31,VWS V14.01,2013-02-19 05:42:00,
2013-02-18 23:47:00,25.0,25.0,29.79,WNW,297,6.3,8.1,100,0.00,,OVC024,0.31,VWS V14.01,2013-02-19 05:47:00,
2013-02-18 23:52:00,25.0,25.0,29.79,SW,233,3.6,7.6,100,0.00,,OVC024,0.31,VWS V14.01,2013-02-19 05:52:00,
2013-02-18 23:57:00,25.0,25.0,29.79,WNW,286,10.5,10.5,100,0.00,,OVC024,0.31,VWS V14.01,2013-02-19 05:57:00,